Time;durP1;ratioP1;P1;durP2;ratioP2;P2;SDS_P1;SDS_P2;PMS_P1;PMS_P2;Temp;Humidity;BMP_temperature;BMP_pressure;BME280_temperature;BME280_humidity;BME280_pressure;Samples;Min_cycle;Max_cycle;Signal;HPM_P1;HPM_P2
2023/06/13 00:02:02;;;;;;;5.33;4.93;;;;;;;13.10;100.00;96219.97;7400989;19;20955;-77
2023/06/13 00:04:30;;;;;;;6.27;5.67;;;;;;;12.87;100.00;96222.44;7398321;19;20445;-77
2023/06/13 00:07:01;;;;;;;5.70;5.03;;;;;;;12.58;100.00;96193.69;7403046;19;20365;-77
2023/06/13 00:09:30;;;;;;;6.00;5.20;;;;;;;12.78;100.00;96231.69;7400305;19;20369;-77
2023/06/13 00:11:57;;;;;;;5.27;4.80;;;;;;;12.81;100.00;96238.97;7401096;19;20396;-77
2023/06/13 00:14:24;;;;;;;4.93;4.57;;;;;;;12.63;100.00;96225.25;7401309;19;20960;-77
2023/06/13 00:16:51;;;;;;;6.20;5.47;;;;;;;12.69;100.00;96237.19;7401567;19;20367;-77
2023/06/13 00:19:19;;;;;;;5.43;4.93;;;;;;;12.48;100.00;96207.47;7401576;19;20376;-77
2023/06/13 00:21:46;;;;;;;8.83;5.00;;;;;;;12.77;100.00;96230.16;7404909;19;20453;-77
2023/06/13 00:24:14;;;;;;;5.40;5.00;;;;;;;12.70;100.00;96210.31;7406592;19;20413;-77
2023/06/13 00:26:41;;;;;;;5.50;5.00;;;;;;;12.88;100.00;96233.84;7403699;19;20798;-77
2023/06/13 00:29:08;;;;;;;5.23;4.43;;;;;;;12.86;100.00;96231.53;7402839;19;20365;-77
2023/06/13 00:31:35;;;;;;;6.40;4.93;;;;;;;12.65;100.00;96225.69;7400030;19;20400;-77
2023/06/13 00:34:02;;;;;;;5.90;5.47;;;;;;;12.38;100.00;96206.84;7399749;19;20827;-77
2023/06/13 00:36:32;;;;;;;7.37;6.07;;;;;;;12.28;100.00;96190.66;7397660;19;20948;-77
2023/06/13 00:38:59;;;;;;;5.93;5.33;;;;;;;11.91;100.00;96225.31;7400925;19;20380;-77
2023/06/13 00:41:26;;;;;;;5.43;4.90;;;;;;;12.29;100.00;96219.50;7395090;19;20356;-77
2023/06/13 00:43:53;;;;;;;5.33;4.83;;;;;;;12.39;100.00;96200.44;7398089;19;20425;-77
2023/06/13 00:46:34;;;;;;;5.57;5.17;;;;;;;12.06;100.00;96189.34;7419242;19;20427;-77
2023/06/13 00:49:04;;;;;;;6.30;5.20;;;;;;;12.04;100.00;96191.56;7421142;19;20365;-77
2023/06/13 00:51:35;;;;;;;5.57;5.10;;;;;;;12.19;100.00;96209.38;7396770;19;20382;-77
2023/06/13 00:54:06;;;;;;;5.63;5.23;;;;;;;12.02;100.00;96193.78;7394860;19;20434;-77
2023/06/13 00:56:34;;;;;;;5.90;5.40;;;;;;;11.74;100.00;96180.50;7398823;19;20424;-76
2023/06/13 00:59:02;;;;;;;5.57;5.07;;;;;;;11.85;100.00;96200.13;7396909;19;20405;-77
2023/06/13 01:01:30;;;;;;;6.10;5.50;;;;;;;11.77;100.00;96182.50;7397844;19;20389;-77
2023/06/13 01:03:59;;;;;;;6.10;5.50;;;;;;;11.65;100.00;96179.88;7398500;19;20445;-77
2023/06/13 01:06:28;;;;;;;6.20;5.53;;;;;;;11.73;100.00;96195.63;7398063;19;21103;-77
2023/06/13 01:08:58;;;;;;;7.60;6.13;;;;;;;11.60;100.00;96204.72;7397324;19;20400;-76
2023/06/13 01:12:08;;;;;;;5.83;5.33;;;;;;;11.61;100.00;96195.66;7398950;19;20389;-76
2023/06/13 01:14:55;;;;;;;5.70;5.00;;;;;;;11.37;100.00;96177.97;7396144;19;20440;-76
2023/06/13 01:17:28;;;;;;;5.47;5.07;;;;;;;11.36;100.00;96179.09;7397017;19;20352;-76
2023/06/13 01:20:03;;;;;;;6.43;5.47;;;;;;;11.37;100.00;96193.09;7397249;19;20370;-77
2023/06/13 01:22:45;;;;;;;5.60;5.20;;;;;;;11.20;100.00;96178.97;7396308;19;20364;-77
2023/06/13 01:25:21;;;;;;;5.83;5.30;;;;;;;11.17;100.00;96192.88;7392726;19;20447;-77
2023/06/13 01:27:50;;;;;;;5.83;5.33;;;;;;;10.88;100.00;96196.53;7399450;19;20724;-77
2023/06/13 01:30:19;;;;;;;5.90;5.50;;;;;;;11.22;100.00;96194.53;7395256;19;20424;-76
2023/06/13 01:32:51;;;;;;;5.23;4.73;;;;;;;11.03;100.00;96176.56;7397784;19;20412;-77
2023/06/13 01:35:19;;;;;;;5.80;5.27;;;;;;;10.78;100.00;96135.38;7395920;19;20380;-77
2023/06/13 01:37:46;;;;;;;6.70;6.10;;;;;;;10.83;100.00;96162.38;7397471;19;20368;-77
2023/06/13 01:40:14;;;;;;;6.40;5.83;;;;;;;11.13;100.00;96180.66;7396012;19;20893;-77
2023/06/13 01:42:42;;;;;;;7.40;5.90;;;;;;;10.79;100.00;96160.72;7396418;19;20879;-77
2023/06/13 01:45:10;;;;;;;7.17;5.33;;;;;;;10.70;100.00;96170.66;7397208;19;20452;-77
2023/06/13 01:47:59;;;;;;;7.20;5.40;;;;;;;10.53;100.00;96171.59;7405194;19;20376;-76
2023/06/13 01:50:34;;;;;;;8.87;5.93;;;;;;;10.69;100.00;96174.41;7404220;19;20916;-76
2023/06/13 01:53:12;;;;;;;6.67;5.70;;;;;;;10.56;100.00;96158.53;7407564;19;20355;-76
2023/06/13 01:55:43;;;;;;;5.63;5.13;;;;;;;10.14;100.00;96141.25;7415047;19;20408;-77
2023/06/13 01:58:26;;;;;;;6.37;5.77;;;;;;;10.25;100.00;96148.44;7414785;19;20377;-77
2023/06/13 02:00:57;;;;;;;7.23;5.40;;;;;;;10.15;100.00;96153.34;7413167;19;20389;-77
2023/06/13 02:03:25;;;;;;;5.67;5.17;;;;;;;10.15;100.00;96134.84;7414975;19;20431;-77
2023/06/13 02:05:52;;;;;;;6.53;6.03;;;;;;;10.29;100.00;96135.38;7412448;19;20447;-77
2023/06/13 02:08:19;;;;;;;8.40;6.00;;;;;;;10.57;100.00;96154.00;7413226;19;20390;-77
2023/06/13 02:10:46;;;;;;;7.53;6.57;;;;;;;10.17;100.00;96143.25;7405259;19;20432;-76
2023/06/13 02:13:13;;;;;;;5.70;5.20;;;;;;;10.40;100.00;96144.41;7402785;19;20369;-76
2023/06/13 02:15:40;;;;;;;9.23;6.03;;;;;;;10.30;100.00;96135.03;7400121;19;20405;-76
2023/06/13 02:18:09;;;;;;;5.80;5.40;;;;;;;10.15;100.00;96129.56;7402668;19;20365;-76
2023/06/13 02:20:37;;;;;;;6.33;5.70;;;;;;;10.06;100.00;96117.25;7399775;19;20405;-76
2023/06/13 02:23:04;;;;;;;8.57;6.33;;;;;;;10.29;100.00;96122.94;7398217;19;20460;-76
2023/06/13 02:25:33;;;;;;;6.00;5.60;;;;;;;10.23;100.00;96137.44;7399212;19;20406;-77
2023/06/13 02:28:00;;;;;;;7.57;6.87;;;;;;;9.83;100.00;96144.34;7409839;19;20341;-77
2023/06/13 02:30:27;;;;;;;7.20;6.60;;;;;;;9.56;100.00;96141.19;7433654;19;20420;-76
2023/06/13 02:32:54;;;;;;;5.93;5.43;;;;;;;9.80;100.00;96140.50;7432395;19;20376;-76
2023/06/13 02:35:23;;;;;;;5.77;5.27;;;;;;;9.71;100.00;96132.66;7418185;19;20468;-76
2023/06/13 02:37:53;;;;;;;6.07;5.50;;;;;;;9.87;100.00;96127.53;7399771;19;20375;-76
2023/06/13 02:40:22;;;;;;;6.90;6.40;;;;;;;10.08;100.00;96138.81;7400729;19;20389;-76
2023/06/13 02:42:50;;;;;;;6.37;5.77;;;;;;;9.89;100.00;96135.91;7401785;19;20403;-76
2023/06/13 02:45:17;;;;;;;6.40;5.80;;;;;;;10.13;100.00;96132.53;7397349;19;20988;-76
2023/06/13 02:47:45;;;;;;;7.57;5.50;;;;;;;9.49;100.00;96106.63;7400683;19;20753;-76
2023/06/13 02:50:12;;;;;;;7.63;6.00;;;;;;;9.60;100.00;96143.94;7399507;19;20382;-76
2023/06/13 02:52:39;;;;;;;7.90;5.90;;;;;;;9.84;100.00;96137.97;7401729;19;20369;-76
2023/06/13 02:55:08;;;;;;;6.40;5.90;;;;;;;9.40;100.00;96114.63;7397811;19;20980;-76
2023/06/13 02:57:38;;;;;;;6.10;5.70;;;;;;;9.64;100.00;96135.06;7398684;19;20408;-76
2023/06/13 03:00:11;;;;;;;6.47;5.87;;;;;;;9.45;100.00;96095.94;7400953;19;20379;-76
2023/06/13 03:02:46;;;;;;;6.90;6.20;;;;;;;9.78;100.00;96137.41;7397849;19;20401;-76
2023/06/13 03:05:15;;;;;;;6.53;5.50;;;;;;;9.64;100.00;96127.16;7398059;19;20432;-76
2023/06/13 03:07:46;;;;;;;5.70;4.93;;;;;;;9.61;100.00;96103.25;7398408;19;20714;-76
2023/06/13 03:10:21;;;;;;;7.10;6.50;;;;;;;9.57;100.00;96097.06;7399752;19;20392;-76
2023/06/13 03:12:48;;;;;;;6.87;6.03;;;;;;;9.64;100.00;96129.00;7398491;19;20368;-76
2023/06/13 03:15:17;;;;;;;5.87;5.33;;;;;;;9.50;100.00;96087.06;7398415;19;20444;-76
2023/06/13 03:17:46;;;;;;;6.60;6.00;;;;;;;9.58;100.00;96103.91;7398561;19;20468;-76
2023/06/13 03:20:16;;;;;;;6.60;5.80;;;;;;;9.25;100.00;96114.44;7396528;19;20367;-76
2023/06/13 03:22:55;;;;;;;7.10;6.50;;;;;;;9.33;100.00;96113.56;7396042;19;20359;-76
2023/06/13 03:25:24;;;;;;;6.60;6.10;;;;;;;9.35;100.00;96124.59;7396049;19;20494;-76
2023/06/13 03:27:51;;;;;;;7.10;6.50;;;;;;;9.06;100.00;96110.38;7400077;19;20892;-76
2023/06/13 03:30:18;;;;;;;6.23;5.70;;;;;;;9.23;100.00;96132.47;7397509;19;20432;-76
2023/06/13 03:32:45;;;;;;;6.67;6.07;;;;;;;9.30;100.00;96109.72;7399036;19;20401;-76
2023/06/13 03:35:12;;;;;;;9.30;6.83;;;;;;;9.47;100.00;96148.38;7395446;19;20436;-76
2023/06/13 03:37:42;;;;;;;6.97;6.33;;;;;;;9.48;100.00;96107.69;7398933;19;20393;-76
2023/06/13 03:40:09;;;;;;;7.07;6.37;;;;;;;9.68;100.00;96141.22;7397655;19;20726;-76
2023/06/13 03:42:36;;;;;;;6.67;6.13;;;;;;;9.25;100.00;96138.19;7398758;19;20921;-76
2023/06/13 03:45:04;;;;;;;7.27;6.53;;;;;;;9.05;100.00;96129.16;7395975;19;20428;-76
2023/06/13 03:47:33;;;;;;;8.10;5.93;;;;;;;9.44;100.00;96149.81;7397420;19;20483;-76
2023/06/13 03:50:00;;;;;;;9.13;6.03;;;;;;;9.01;100.00;96123.75;7419193;19;20405;-76
2023/06/13 03:52:27;;;;;;;7.40;6.50;;;;;;;8.98;100.00;96087.47;7428575;19;20411;-76
2023/06/13 03:54:54;;;;;;;7.00;6.50;;;;;;;9.32;100.00;96127.88;7394071;19;20410;-76
2023/06/13 03:57:21;;;;;;;10.30;6.33;;;;;;;9.43;100.00;96115.81;7398509;19;20401;-76
2023/06/13 03:59:51;;;;;;;6.40;5.80;;;;;;;9.23;100.00;96101.56;7398492;19;20400;-76
2023/06/13 04:02:19;;;;;;;7.67;6.87;;;;;;;9.27;100.00;96120.16;7402609;19;20349;-76
2023/06/13 04:04:47;;;;;;;6.83;6.23;;;;;;;9.31;100.00;96124.47;7397173;19;20415;-76
2023/06/13 04:07:14;;;;;;;13.37;7.33;;;;;;;9.39;100.00;96120.22;7392471;19;20382;-76
2023/06/13 04:09:42;;;;;;;7.77;6.30;;;;;;;9.67;100.00;96138.91;7396918;19;20401;-76
2023/06/13 04:12:11;;;;;;;7.67;6.90;;;;;;;9.60;100.00;96136.00;7398581;19;20425;-76
2023/06/13 04:14:39;;;;;;;15.50;7.80;;;;;;;9.62;100.00;96110.09;7395625;19;20989;-76
2023/06/13 04:17:08;;;;;;;8.70;6.90;;;;;;;9.77;100.00;96123.44;7395640;19;20385;-76
2023/06/13 04:19:35;;;;;;;12.50;8.23;;;;;;;10.26;100.00;96146.56;7396685;19;20400;-76
2023/06/13 04:22:06;;;;;;;6.87;6.27;;;;;;;10.25;100.00;96134.47;7395663;19;20738;-76
2023/06/13 04:24:33;;;;;;;6.23;5.63;;;;;;;10.30;100.00;96142.19;7396086;19;20523;-76
2023/06/13 04:27:03;;;;;;;9.70;6.07;;;;;;;9.97;100.00;96103.34;7394999;19;20444;-74
2023/06/13 04:29:31;;;;;;;11.33;7.03;;;;;;;10.25;100.00;96137.88;7394066;19;20377;-75
2023/06/13 04:31:58;;;;;;;7.67;6.87;;;;;;;9.87;100.00;96110.91;7395820;19;20361;-76
2023/06/13 04:34:25;;;;;;;9.20;6.60;;;;;;;10.46;100.00;96121.94;7396343;19;20428;-76
2023/06/13 04:36:55;;;;;;;7.97;6.50;;;;;;;10.73;100.00;96132.97;7395755;19;20377;-75
2023/06/13 04:39:24;;;;;;;8.23;6.37;;;;;;;10.34;100.00;96133.28;7397387;19;20388;-75
2023/06/13 04:41:55;;;;;;;7.80;6.97;;;;;;;10.20;100.00;96137.31;7395805;19;20726;-75
2023/06/13 04:44:25;;;;;;;8.93;7.87;;;;;;;10.92;100.00;96138.44;7396688;19;20964;-75
2023/06/13 04:46:57;;;;;;;7.90;7.10;;;;;;;11.25;100.00;96125.06;7396552;19;20400;-75
2023/06/13 04:49:27;;;;;;;7.93;6.87;;;;;;;11.68;100.00;96136.84;7395084;19;20424;-75
2023/06/13 04:51:55;;;;;;;7.17;6.60;;;;;;;11.65;100.00;96114.44;7392498;19;21049;-75
2023/06/13 04:54:22;;;;;;;12.83;7.20;;;;;;;11.96;100.00;96142.13;7393568;19;20463;-75
2023/06/13 04:56:49;;;;;;;6.70;6.00;;;;;;;12.39;100.00;96157.25;7397527;19;20384;-75
2023/06/13 04:59:16;;;;;;;8.03;7.17;;;;;;;12.36;100.00;96129.53;7394494;19;20714;-76
2023/06/13 05:01:43;;;;;;;7.43;6.60;;;;;;;12.52;100.00;96124.22;7395615;19;20372;-75
2023/06/13 05:04:10;;;;;;;7.43;6.37;;;;;;;12.86;100.00;96135.25;7393372;19;20960;-76
2023/06/13 05:06:37;;;;;;;8.67;7.97;;;;;;;12.88;100.00;96133.78;7394992;19;20360;-76
2023/06/13 05:09:06;;;;;;;7.20;6.60;;;;;;;12.99;100.00;96124.16;7393581;19;20731;-72
2023/06/13 05:11:33;;;;;;;6.87;6.23;;;;;;;13.19;100.00;96148.88;7395658;19;20376;-72
2023/06/13 05:14:00;;;;;;;7.10;6.30;;;;;;;13.03;100.00;96156.84;7393627;19;20459;-72
2023/06/13 05:16:29;;;;;;;6.73;6.23;;;;;;;12.95;100.00;96149.06;7396662;19;20420;-72
2023/06/13 05:18:57;;;;;;;8.87;8.00;;;;;;;13.23;100.00;96148.97;7394176;19;20349;-72
2023/06/13 05:21:24;;;;;;;8.13;6.80;;;;;;;13.61;100.00;96125.06;7402802;19;20930;-73
2023/06/13 05:23:52;;;;;;;8.57;6.63;;;;;;;14.09;100.00;96154.84;7400919;19;20425;-72
2023/06/13 05:26:20;;;;;;;11.70;8.10;;;;;;;14.00;100.00;96146.31;7404410;19;20349;-72
2023/06/13 05:28:47;;;;;;;7.60;6.80;;;;;;;14.01;100.00;96147.06;7402588;19;20373;-72
2023/06/13 05:31:14;;;;;;;14.13;7.00;;;;;;;14.09;100.00;96141.53;7401703;19;20448;-73
2023/06/13 05:33:41;;;;;;;7.60;6.67;;;;;;;14.05;100.00;96113.38;7400925;19;20428;-73
2023/06/13 05:36:08;;;;;;;7.03;5.93;;;;;;;14.23;100.00;96119.75;7402895;19;20733;-72
2023/06/13 05:38:36;;;;;;;9.00;7.53;;;;;;;14.33;100.00;96132.47;7403775;19;20341;-72
2023/06/13 05:41:03;;;;;;;10.03;6.80;;;;;;;13.81;100.00;96149.75;7404420;19;20370;-72
2023/06/13 05:43:30;;;;;;;7.50;6.90;;;;;;;13.89;100.00;96148.03;7400574;19;20996;-72
2023/06/13 05:45:57;;;;;;;6.63;5.97;;;;;;;14.17;100.00;96137.91;7402534;19;20451;-72
2023/06/13 05:48:24;;;;;;;8.13;7.33;;;;;;;14.44;100.00;96128.13;7399185;19;20387;-72
2023/06/13 05:50:51;;;;;;;7.57;6.93;;;;;;;14.21;100.00;96119.34;7399207;19;20398;-73
2023/06/13 05:53:18;;;;;;;7.27;6.43;;;;;;;14.40;100.00;96121.91;7400889;19;20376;-72
2023/06/13 05:55:45;;;;;;;5.90;5.40;;;;;;;14.47;100.00;96138.03;7419881;19;20353;-73
2023/06/13 05:58:12;;;;;;;7.13;6.50;;;;;;;14.46;100.00;96149.81;7430405;19;20374;-73
2023/06/13 06:00:40;;;;;;;7.20;5.87;;;;;;;15.00;100.00;96159.38;7429375;19;20469;-72
2023/06/13 06:03:08;;;;;;;7.13;6.57;;;;;;;15.17;100.00;96150.09;7428307;19;20371;-73
2023/06/13 06:05:35;;;;;;;5.53;4.83;;;;;;;15.75;100.00;96160.38;7435156;19;20361;-72
2023/06/13 06:08:01;;;;;;;5.83;5.30;;;;;;;15.80;100.00;96167.31;7414058;19;20365;-72
2023/06/13 06:10:28;;;;;;;7.20;6.50;;;;;;;16.04;100.00;96176.72;7400240;19;20451;-72
2023/06/13 06:12:55;;;;;;;5.10;4.70;;;;;;;16.36;98.34;96169.03;7401050;19;20930;-72
2023/06/13 06:15:22;;;;;;;10.37;5.47;;;;;;;16.69;98.21;96150.25;7398576;19;20423;-72
2023/06/13 06:17:52;;;;;;;6.23;5.20;;;;;;;17.06;95.53;96182.22;7400743;19;20357;-72
2023/06/13 06:20:19;;;;;;;9.53;6.07;;;;;;;16.78;92.44;96166.75;7399623;19;20876;-72
2023/06/13 06:22:46;;;;;;;6.73;5.40;;;;;;;17.06;91.61;96158.16;7402869;19;20365;-72
2023/06/13 06:25:19;;;;;;;6.77;6.13;;;;;;;17.26;90.43;96174.72;7397527;19;20429;-73
2023/06/13 06:27:50;;;;;;;7.07;4.70;;;;;;;17.81;87.88;96195.25;7399537;19;20389;-72
2023/06/13 06:30:17;;;;;;;5.20;4.80;;;;;;;17.72;82.25;96184.91;7397916;19;20374;-72
2023/06/13 06:32:44;;;;;;;8.33;4.87;;;;;;;17.96;82.58;96199.50;7400951;19;20743;-72
2023/06/13 06:35:11;;;;;;;6.40;5.17;;;;;;;17.70;79.62;96171.13;7397020;19;20468;-72
2023/06/13 06:37:38;;;;;;;6.73;4.10;;;;;;;18.01;80.45;96199.91;7400178;19;20940;-72
2023/06/13 06:40:06;;;;;;;33.33;25.07;;;;;;;17.85;77.22;96175.41;7399269;19;20374;-72
2023/06/13 06:42:33;;;;;;;8.13;5.80;;;;;;;18.09;76.32;96198.03;7399879;19;20366;-72
2023/06/13 06:45:09;;;;;;;6.53;4.33;;;;;;;18.35;76.06;96177.44;7396794;19;20974;-72
2023/06/13 06:47:37;;;;;;;7.80;4.50;;;;;;;18.02;73.80;96195.31;7400876;19;20941;-72
2023/06/13 06:50:04;;;;;;;5.43;4.07;;;;;;;18.14;72.22;96191.53;7398512;19;20408;-72
2023/06/13 06:52:32;;;;;;;5.20;4.47;;;;;;;17.95;70.03;96188.06;7400527;19;20396;-72
2023/06/13 06:54:58;;;;;;;7.13;4.33;;;;;;;18.13;68.05;96206.84;7396946;19;20446;-72
2023/06/13 06:57:26;;;;;;;4.53;4.10;;;;;;;18.28;69.66;96213.75;7400206;19;20369;-72
2023/06/13 06:59:53;;;;;;;5.00;4.50;;;;;;;18.58;68.73;96204.66;7398965;19;20412;-72
2023/06/13 07:02:20;;;;;;;4.57;3.70;;;;;;;18.19;67.99;96209.91;7401575;19;20387;-72
2023/06/13 07:04:47;;;;;;;4.50;3.93;;;;;;;18.38;69.36;96195.44;7397111;19;20393;-72
2023/06/13 07:07:14;;;;;;;7.73;4.87;;;;;;;18.27;70.64;96204.19;7399636;19;20382;-72
2023/06/13 07:09:41;;;;;;;4.60;4.20;;;;;;;18.61;70.17;96195.84;7400547;19;20379;-72
2023/06/13 07:12:08;;;;;;;7.70;4.80;;;;;;;18.56;69.21;96199.69;7397040;19;20376;-72
2023/06/13 07:14:35;;;;;;;4.27;3.97;;;;;;;18.68;68.71;96203.91;7398756;19;20409;-72
2023/06/13 07:17:05;;;;;;;6.03;5.50;;;;;;;18.76;69.06;96184.03;7396869;19;20410;-72
2023/06/13 07:19:32;;;;;;;5.90;5.47;;;;;;;18.61;69.33;96196.63;7402741;19;20906;-73
2023/06/13 07:22:00;;;;;;;4.50;4.03;;;;;;;18.76;68.46;96205.44;7425679;19;20410;-73
2023/06/13 07:24:31;;;;;;;5.50;4.40;;;;;;;18.48;67.54;96195.44;7411367;19;20415;-72
2023/06/13 07:26:58;;;;;;;6.20;4.60;;;;;;;19.14;67.02;96214.63;7396704;19;20789;-72
2023/06/13 07:29:25;;;;;;;5.30;4.90;;;;;;;19.17;67.14;96194.34;7398401;19;20402;-72
2023/06/13 07:31:52;;;;;;;7.73;4.97;;;;;;;19.07;66.81;96189.75;7398250;19;20344;-72
2023/06/13 07:34:19;;;;;;;6.97;3.83;;;;;;;19.08;64.75;96197.41;7397028;19;20447;-72
2023/06/13 07:37:06;;;;;;;4.37;3.90;;;;;;;19.43;62.82;96212.69;7397206;19;20477;-72
2023/06/13 07:39:33;;;;;;;9.70;5.00;;;;;;;19.17;63.14;96197.03;7398346;19;20374;-71
2023/06/13 07:42:00;;;;;;;7.63;5.03;;;;;;;19.43;62.19;96193.91;7395300;19;20419;-72
2023/06/13 07:44:27;;;;;;;4.60;4.20;;;;;;;19.96;61.81;96205.66;7397330;19;20490;-73
2023/06/13 07:46:54;;;;;;;5.73;5.23;;;;;;;19.21;61.88;96192.41;7396531;19;20389;-72
2023/06/13 07:49:21;;;;;;;9.00;4.67;;;;;;;19.52;61.60;96211.53;7398389;19;20370;-72
2023/06/13 07:51:48;;;;;;;5.03;4.53;;;;;;;19.84;60.44;96177.31;7397013;19;20913;-73
2023/06/13 07:54:15;;;;;;;12.27;4.33;;;;;;;19.85;58.69;96192.28;7397592;19;20428;-73
2023/06/13 07:56:44;;;;;;;6.87;3.90;;;;;;;20.13;59.06;96187.94;7398342;19;20340;-73
2023/06/13 07:59:11;;;;;;;8.27;4.10;;;;;;;20.23;60.31;96205.91;7396823;19;20364;-73
2023/06/13 08:01:38;;;;;;;5.17;4.60;;;;;;;19.90;60.08;96178.47;7397131;19;20736;-72
2023/06/13 08:04:05;;;;;;;4.70;4.30;;;;;;;19.94;60.29;96184.56;7395924;19;20410;-73
2023/06/13 08:06:32;;;;;;;8.53;3.97;;;;;;;20.46;60.24;96190.09;7398308;19;20337;-73
2023/06/13 08:08:59;;;;;;;4.73;4.30;;;;;;;20.31;57.69;96202.81;7393965;19;20680;-73
2023/06/13 08:11:26;;;;;;;6.53;3.63;;;;;;;20.08;57.93;96181.81;7396417;19;20376;-74
2023/06/13 08:13:53;;;;;;;5.30;3.70;;;;;;;20.31;57.03;96193.97;7397300;19;20400;-73
2023/06/13 08:16:20;;;;;;;5.13;3.80;;;;;;;20.08;54.32;96175.69;7396763;19;20380;-73
2023/06/13 08:18:47;;;;;;;5.03;3.70;;;;;;;20.65;54.62;96196.84;7395132;19;20377;-73
2023/06/13 08:21:14;;;;;;;5.67;4.10;;;;;;;20.47;53.80;96180.09;7398010;19;20386;-73
2023/06/13 08:23:41;;;;;;;3.83;3.53;;;;;;;20.56;53.85;96193.84;7394894;19;20428;-73
2023/06/13 08:26:08;;;;;;;4.30;3.40;;;;;;;20.18;54.38;96174.13;7397309;19;20410;-73
2023/06/13 08:28:35;;;;;;;5.47;3.53;;;;;;;20.48;54.82;96181.63;7393817;19;20406;-73
2023/06/13 08:31:03;;;;;;;5.90;3.67;;;;;;;20.71;53.05;96183.78;7396810;19;20391;-73
2023/06/13 08:33:51;;;;;;;4.17;3.73;;;;;;;21.48;52.70;96184.25;7395050;19;20772;-74
2023/06/13 08:36:36;;;;;;;5.80;4.30;;;;;;;21.21;51.90;96192.16;7394119;19;20367;-74
2023/06/13 08:39:06;;;;;;;3.63;3.30;;;;;;;20.90;52.51;96159.03;7396148;19;20778;-74
2023/06/13 08:41:34;;;;;;;4.03;3.70;;;;;;;21.07;52.88;96176.16;7395956;19;21032;-75
2023/06/13 08:44:01;;;;;;;5.10;3.87;;;;;;;20.94;52.61;96154.38;7394949;19;20439;-75
2023/06/13 08:46:29;;;;;;;5.53;4.07;;;;;;;21.80;51.59;96184.66;7396085;19;20353;-74
2023/06/13 08:48:56;;;;;;;4.00;3.60;;;;;;;21.62;50.43;96184.09;7394455;19;20403;-74
2023/06/13 08:51:28;;;;;;;4.10;3.80;;;;;;;21.24;49.96;96186.78;7394445;19;20431;-74
2023/06/13 08:53:59;;;;;;;7.30;3.47;;;;;;;21.60;50.11;96188.34;7399655;19;20426;-74
2023/06/13 08:56:28;;;;;;;8.43;3.83;;;;;;;21.39;50.10;96182.03;7402143;19;20748;-74
2023/06/13 08:59:07;;;;;;;4.50;3.60;;;;;;;21.50;49.33;96181.91;7404478;19;20391;-74
2023/06/13 09:01:39;;;;;;;6.33;4.40;;;;;;;20.64;50.53;96173.84;7404292;19;20343;-74
2023/06/13 09:04:09;;;;;;;4.27;3.90;;;;;;;20.55;50.31;96146.63;7401297;19;20424;-74
2023/06/13 09:06:37;;;;;;;4.53;4.10;;;;;;;21.11;49.94;96166.91;7402933;19;20909;-74
2023/06/13 09:09:09;;;;;;;3.47;3.17;;;;;;;21.53;49.41;96156.91;7398741;19;20397;-74
2023/06/13 09:11:36;;;;;;;4.07;3.77;;;;;;;21.40;49.40;96145.91;7404228;19;20350;-74
2023/06/13 09:14:06;;;;;;;4.10;3.03;;;;;;;21.71;49.35;96162.84;7399851;19;20435;-74
2023/06/13 09:16:33;;;;;;;4.30;3.70;;;;;;;21.13;50.28;96143.09;7404349;19;20368;-75
2023/06/13 09:19:00;;;;;;;5.03;3.30;;;;;;;21.67;50.59;96164.06;7401283;19;20412;-74
2023/06/13 09:21:28;;;;;;;8.63;3.93;;;;;;;21.57;48.25;96144.19;7403026;19;20422;-75
2023/06/13 09:23:56;;;;;;;4.20;3.80;;;;;;;21.68;48.96;96165.59;7401673;19;20385;-74
2023/06/13 09:26:25;;;;;;;3.60;3.30;;;;;;;21.81;46.38;96163.91;7404219;19;20368;-74
2023/06/13 09:28:52;;;;;;;4.20;3.10;;;;;;;22.20;44.90;96171.50;7400899;19;20360;-74
2023/06/13 09:31:19;;;;;;;8.07;4.13;;;;;;;21.47;44.86;96163.88;7402739;19;20439;-75
2023/06/13 09:33:46;;;;;;;4.80;3.50;;;;;;;21.43;44.88;96153.16;7402101;19;20399;-74
2023/06/13 09:36:13;;;;;;;4.13;3.60;;;;;;;21.49;44.96;96156.16;7402793;19;20361;-75
2023/06/13 09:38:41;;;;;;;5.80;4.20;;;;;;;21.91;43.56;96157.63;7401323;19;20429;-74
2023/06/13 09:41:12;;;;;;;5.07;3.80;;;;;;;22.10;44.88;96143.53;7402846;19;20401;-74
2023/06/13 09:43:39;;;;;;;4.73;3.60;;;;;;;22.33;44.34;96153.63;7400957;19;20397;-75
2023/06/13 09:46:12;;;;;;;3.53;3.10;;;;;;;21.97;45.81;96149.84;7400503;19;20479;-75
2023/06/13 09:48:45;;;;;;;3.73;3.30;;;;;;;21.84;45.09;96142.31;7400849;19;20382;-75
2023/06/13 09:51:12;;;;;;;4.33;3.97;;;;;;;22.53;44.74;96142.91;7400020;19;20978;-74
2023/06/13 09:53:39;;;;;;;5.10;4.10;;;;;;;22.41;43.67;96138.09;7401010;19;20377;-74
2023/06/13 09:56:10;;;;;;;4.10;3.27;;;;;;;21.98;42.86;96145.97;7400333;19;20352;-74
2023/06/13 09:58:38;;;;;;;4.20;3.73;;;;;;;21.75;43.53;96141.25;7398237;19;20370;-74
2023/06/13 10:01:11;;;;;;;3.50;3.20;;;;;;;22.23;43.46;96119.50;7400388;19;20703;-74
2023/06/13 10:03:39;;;;;;;5.30;3.60;;;;;;;21.83;42.64;96121.19;7401792;19;20417;-74
2023/06/13 10:06:06;;;;;;;3.97;3.67;;;;;;;21.82;42.38;96131.19;7400699;19;20970;-74
2023/06/13 10:08:34;;;;;;;3.20;3.00;;;;;;;21.51;42.34;96105.44;7402078;19;20367;-74
2023/06/13 10:11:08;;;;;;;4.43;3.50;;;;;;;22.02;43.09;96104.38;7400266;19;20898;-75
2023/06/13 10:13:43;;;;;;;4.33;3.43;;;;;;;21.78;43.89;96124.31;7401076;19;20400;-75
2023/06/13 10:16:12;;;;;;;5.03;3.77;;;;;;;21.59;43.33;96100.72;7400557;19;20426;-74
2023/06/13 10:18:42;;;;;;;5.73;3.80;;;;;;;21.80;43.56;96087.00;7398855;19;20853;-74
2023/06/13 10:21:12;;;;;;;4.57;4.17;;;;;;;22.56;43.45;96082.78;7400582;19;20762;-74
2023/06/13 10:23:44;;;;;;;5.70;3.67;;;;;;;22.68;43.71;96106.47;7399073;19;20413;-74
2023/06/13 10:26:17;;;;;;;5.20;3.90;;;;;;;22.56;43.27;96082.03;7400491;19;20381;-74
2023/06/13 10:29:02;;;;;;;3.80;3.17;;;;;;;22.60;43.80;96094.31;7398026;19;20387;-74
2023/06/13 10:31:32;;;;;;;7.20;3.40;;;;;;;22.53;43.77;96099.78;7398157;19;20376;-74
2023/06/13 10:34:27;;;;;;;4.70;4.23;;;;;;;23.06;43.38;96092.75;7400462;19;20416;-74
2023/06/13 10:37:20;;;;;;;3.80;3.40;;;;;;;23.20;44.10;96107.91;7399167;19;20857;-75
2023/06/13 10:40:04;;;;;;;6.70;3.90;;;;;;;23.03;43.32;96090.13;7398531;19;20396;-75
2023/06/13 10:42:44;;;;;;;8.20;3.37;;;;;;;23.50;43.72;96083.41;7402304;19;20709;-75
2023/06/13 10:45:18;;;;;;;3.30;3.10;;;;;;;22.58;43.23;96080.47;7397631;19;20433;-76
2023/06/13 10:47:45;;;;;;;3.50;3.30;;;;;;;22.09;43.56;96063.16;7398274;19;20364;-75
2023/06/13 10:50:16;;;;;;;3.70;3.17;;;;;;;22.63;42.60;96087.31;7400438;19;20375;-75
2023/06/13 10:52:46;;;;;;;3.93;3.53;;;;;;;23.17;41.61;96071.75;7398993;19;20379;-74
2023/06/13 10:55:25;;;;;;;5.80;3.40;;;;;;;23.24;41.50;96076.25;7397262;19;21001;-75
2023/06/13 10:57:56;;;;;;;5.20;3.67;;;;;;;23.70;41.24;96082.69;7398395;19;20416;-75
2023/06/13 11:00:27;;;;;;;4.27;3.87;;;;;;;23.72;41.09;96074.91;7399845;19;20419;-74
2023/06/13 11:03:05;;;;;;;4.07;3.73;;;;;;;23.03;41.10;96060.47;7398264;19;20911;-74
2023/06/13 11:05:37;;;;;;;6.80;4.07;;;;;;;23.67;40.29;96070.78;7397561;19;20392;-74
2023/06/13 11:08:19;;;;;;;5.90;3.93;;;;;;;23.68;39.10;96071.53;7398558;19;20409;-75
2023/06/13 11:10:48;;;;;;;3.97;2.70;;;;;;;24.48;39.49;96058.56;7398181;19;20732;-74
2023/06/13 11:13:20;;;;;;;3.77;3.33;;;;;;;24.54;38.76;96070.38;7399513;19;20385;-75
2023/06/13 11:15:50;;;;;;;4.60;3.60;;;;;;;24.45;39.11;96066.34;7399439;19;20887;-75
2023/06/13 11:18:20;;;;;;;4.20;3.80;;;;;;;23.37;39.71;96063.66;7400599;19;20407;-75
2023/06/13 11:20:54;;;;;;;3.70;3.37;;;;;;;23.97;39.58;96064.34;7399162;19;20351;-75
2023/06/13 11:23:33;;;;;;;4.70;3.90;;;;;;;23.72;40.03;96066.81;7400783;19;20857;-75
2023/06/13 11:26:00;;;;;;;3.90;3.53;;;;;;;24.52;39.72;96057.28;7398078;19;20400;-74
2023/06/13 11:28:27;;;;;;;4.23;3.50;;;;;;;24.28;39.15;96056.66;7397027;19;20424;-75
2023/06/13 11:30:55;;;;;;;5.03;3.57;;;;;;;24.52;38.29;96051.13;7397286;19;20412;-73
2023/06/13 11:33:24;;;;;;;5.70;3.73;;;;;;;24.32;38.47;96051.22;7395980;19;20380;-73
2023/06/13 11:35:58;;;;;;;6.23;4.30;;;;;;;24.02;39.43;96047.63;7399071;19;20376;-74
2023/06/13 11:38:33;;;;;;;5.90;3.50;;;;;;;23.36;40.27;96037.81;7406212;19;20398;-75
2023/06/13 11:41:00;;;;;;;4.20;3.53;;;;;;;22.91;40.20;96021.38;7434173;19;20366;-77